Latest Weather Observations for West Wyalong

IDN60801

Issued at 8:33 pm EDT Tuesday 16 January 2018 (issued every 30 minutes, with the page automatically refreshed every 10 minutes)

About weather observations | Map of weather stations | Latest weather observations for NSW | Other Formats
Station Details ID: 050017 Name: WEST WYALONG AIRPORT AWS Lat: -33.94 Lon: 147.20 Height: 257.0 m
Data from the previous 72 hours. | See also: Recent months at West Wyalong
Date/Time
EDT
Temp
°C
App
Temp
°C
Dew
Point
°C
Rel
Hum
%
Delta-T
°C
Wind Press
QNH
hPa
Press
MSL
hPa
Rain since
9am
mm
Dir  Spd
km/h
Gust
km/h
Spd
kts
Gust
kts
16/08:30pm 26.7 22.1 -1.2 16 12.9 ESE 13 20 7 11 1016.2 1014.8 0.0
16/08:00pm 28.8 23.1 -3.4 12 14.5 ESE 17 24 9 13 1016.0 1014.6 0.0
16/07:30pm 29.9 25.0 -3.7 11 15.2 ESE 13 19 7 10 1015.7 1014.2 0.0
16/07:00pm 30.4 24.6 -4.6 10 15.7 SE 17 26 9 14 1015.7 1014.2 0.0
16/06:30pm 31.2 26.2 -4.0 10 16.0 SSW 13 26 7 14 1015.5 1014.0 0.0
16/06:00pm 31.1 25.7 -4.1 10 16.0 SE 15 24 8 13 1015.5 1014.0 0.0
16/05:30pm 31.4 26.1 -3.8 10 16.1 ESE 15 24 8 13 1015.6 1014.1 0.0
16/05:00pm 31.4 25.8 -2.6 11 15.9 SE 17 28 9 15 1016.0 1014.6 0.0
16/04:30pm 30.9 25.7 -3.0 11 15.7 SE 15 22 8 12 1016.3 1014.9 0.0
16/04:00pm 31.1 25.9 -2.8 11 15.7 SE 15 28 8 15 1016.5 1015.1 0.0
16/03:30pm 30.4 25.3 -2.2 12 15.2 SSE 15 22 8 12 1016.8 1015.4 0.0
16/03:00pm 30.3 26.1 -1.2 13 14.9 SSE 11 20 6 11 1017.2 1015.7 0.0
16/02:30pm 29.9 25.4 -0.5 14 14.6 SE 13 28 7 15 1017.5 1016.0 0.0
16/02:00pm 29.1 23.4 -1.1 14 14.2 SSE 19 28 10 15 1017.8 1016.3 0.0
16/01:30pm 27.9 22.7 -0.2 16 13.3 S 17 24 9 13 1018.4 1016.9 0.0
16/01:00pm 28.7 25.0 2.1 18 13.2 ESE 11 26 6 14 1018.9 1017.4 0.0
16/12:30pm 28.2 23.7 2.4 19 12.8 SSE 15 24 8 13 1019.2 1017.7 0.0
16/12:00pm 26.6 21.8 2.5 21 11.9 E 17 24 9 13 1019.6 1018.2 0.0
16/11:30am 26.1 20.5 1.4 20 11.9 ESE 20 30 11 16 1019.8 1018.4 0.0
16/11:00am 24.9 19.5 2.4 23 10.9 E 20 30 11 16 1019.9 1018.5 0.0
16/10:30am 24.0 18.5 3.9 27 10.0 E 22 30 12 16 1020.0 1018.6 0.0
16/10:00am 22.5 17.0 4.1 30 9.1 ENE 22 32 12 17 1020.0 1018.6 0.0
16/09:30am 21.6 16.1 3.8 31 8.7 E 22 28 12 15 1020.2 1018.8 0.0
16/09:00am 20.7 14.2 4.7 35 7.9 E 28 39 15 21 1020.2 1018.8 0.0
16/08:30am 19.6 13.8 6.4 42 6.7 E 26 39 14 21 1020.2 1018.8 0.0
16/08:00am 18.7 13.1 7.2 47 5.9 E 26 35 14 19 1019.7 1018.3 0.0
16/07:30am 18.1 14.9 8.4 53 5.1 ENE 15 22 8 12 1019.3 1017.8 0.0
16/07:00am 17.3 14.5 8.7 57 4.5 E 13 17 7 9 1018.9 1017.4 0.0
16/06:30am 16.5 14.0 8.0 57 4.4 E 11 15 6 8 1018.6 1017.1 0.0
16/06:00am 17.3 14.0 7.9 54 4.8 E 15 20 8 11 1018.1 1016.6 0.0
16/05:30am 17.9 14.3 8.2 53 5.0 E 17 30 9 16 1017.8 1016.3 0.0
16/05:00am 18.0 14.5 8.6 54 4.9 E 17 26 9 14 1017.7 1016.2 0.0
16/04:30am 17.8 14.6 8.4 54 4.9 E 15 19 8 10 1017.4 1015.9 0.0
16/04:00am 17.8 15.6 7.8 52 5.1 ESE 9 13 5 7 1017.4 1015.9 0.0
16/03:30am 18.7 16.1 7.8 49 5.6 E 11 15 6 8 1017.2 1015.7 0.0
16/03:00am 19.5 16.2 7.9 47 6.0 ESE 15 20 8 11 1016.9 1015.5 0.0
16/02:30am 20.2 16.5 7.9 45 6.4 E 17 24 9 13 1017.1 1015.6 0.0
16/02:00am 20.7 17.0 8.0 44 6.7 ESE 17 24 9 13 1017.2 1015.7 0.0
16/01:30am 20.6 18.0 9.2 48 6.1 ESE 13 17 7 9 1017.3 1015.8 0.0
16/01:00am 22.0 18.6 9.2 44 6.9 SE 17 20 9 11 1016.9 1015.5 0.0
16/12:30am 22.1 19.8 8.9 43 7.1 S 11 15 6 8 1016.6 1015.2 0.0
16/12:00am 22.9 20.1 8.6 40 7.7 S 13 17 7 9 1016.6 1015.2 0.0
 
Date/Time
EDT
Temp
°C
App
Temp
°C
Dew
Point
°C
Rel
Hum
%
Delta-T
°C
Wind Press
QNH
hPa
Press
MSL
hPa
Rain since
9am
mm
Dir  Spd
km/h
Gust
km/h
Spd
kts
Gust
kts
15/11:30pm 21.9 19.8 8.1 41 7.3 SSW 9 11 5 6 1016.5 1015.1 0.0
15/11:00pm 22.6 20.0 7.6 38 7.9 S 11 15 6 8 1016.4 1015.0 0.0
15/10:30pm 21.8 19.8 7.2 39 7.6 SW 7 9 4 5 1016.4 1015.0 0.0
15/10:00pm 21.8 21.1 6.9 38 7.7 CALM 0 7 0 4 1016.1 1014.7 0.0
15/09:30pm 24.2 21.8 6.9 33 9.1 SSE 9 13 5 7 1015.8 1014.3 0.0
15/09:00pm 25.4 22.1 6.6 30 9.9 SSE 13 15 7 8 1015.6 1014.1 0.0
15/08:30pm 26.5 22.8 6.5 28 10.6 SSE 15 22 8 12 1015.5 1014.0 0.0
15/08:00pm 27.8 23.2 6.6 26 11.3 SSE 20 28 11 15 1015.2 1013.7 0.0
15/07:30pm 28.7 23.8 6.7 25 11.8 SSE 22 32 12 17 1014.9 1013.4 0.0
15/07:00pm 29.2 25.2 6.6 24 12.2 S 17 24 9 13 1014.6 1013.1 0.0
15/06:30pm 29.6 25.1 6.9 24 12.3 S 20 32 11 17 1014.3 1012.8 0.0
15/06:00pm 30.0 25.4 6.6 23 12.6 S 20 30 11 16 1014.1 1012.6 0.0
15/05:30pm 29.8 24.8 6.5 23 12.6 S 22 35 12 19 1014.2 1012.7 0.0
15/05:00pm 30.2 24.2 5.5 21 13.1 SSE 26 33 14 18 1014.4 1012.9 0.0
15/04:30pm 30.1 23.9 6.1 22 12.9 S 28 39 15 21 1014.5 1013.0 0.0
15/04:00pm 29.6 24.8 5.6 22 12.7 S 20 33 11 18 1014.8 1013.3 0.0
15/03:30pm 29.5 25.2 6.8 24 12.3 S 19 32 10 17 1015.1 1013.6 0.0
15/03:00pm 28.8 24.3 6.8 25 11.8 SSE 20 30 11 16 1015.3 1013.8 0.0
15/02:30pm 28.3 25.6 7.5 27 11.3 SSE 11 26 6 14 1015.6 1014.1 0.0
15/02:00pm 27.8 24.8 7.6 28 11.0 SSW 13 26 7 14 1015.9 1014.5 0.0
15/01:30pm 27.0 23.6 7.5 29 10.5 S 15 22 8 12 1016.3 1014.9 0.0
15/01:09pm 26.5 23.3 7.0 29 10.4 S 13 28 7 15 1016.7 1015.3 0.0
15/01:08pm -16.7 -22.6 -30.1 30 1.1 S 11 24 6 13 1016.7 1015.3 0.0
15/01:00pm 26.4 23.2 6.9 29 10.4 S 13 26 7 14 1016.9 1015.5 0.0
15/12:30pm 25.4 22.9 6.6 30 9.9 SSE 9 15 5 8 1017.3 1015.8 0.0
15/12:00pm 24.5 21.6 6.3 31 9.5 WSW 11 17 6 9 1017.5 1016.0 0.0
15/11:30am 23.6 20.7 6.4 33 8.9 S 11 19 6 10 1017.8 1016.3 0.0
15/11:00am 22.3 20.6 5.7 34 8.4 SE 4 19 2 10 1017.7 1016.2 0.0
15/10:30am 22.2 19.3 6.4 36 8.1 SSE 11 19 6 10 1017.9 1016.4 0.0
15/10:00am 21.6 18.7 6.3 37 7.8 E 11 19 6 10 1018.1 1016.6 0.0
15/09:30am 21.5 19.2 7.3 40 7.4 ENE 9 17 5 9 1018.0 1016.5 0.0
15/09:00am 20.4 18.2 7.7 44 6.6 E 9 13 5 7 1017.8 1016.3 0.0
15/08:30am 19.2 16.9 7.3 46 6.1 E 9 15 5 8 1017.5 1016.0 0.0
15/08:00am 18.3 15.2 7.1 48 5.7 ESE 13 15 7 8 1017.2 1015.7 0.0
15/07:30am 17.3 14.9 6.8 50 5.3 SE 9 15 5 8 1016.8 1015.4 0.0
15/07:00am 15.0 13.2 7.1 59 3.9 SSW 6 7 3 4 1016.4 1015.0 0.0
15/06:30am 13.4 11.3 6.7 64 3.3 SSW 7 9 4 5 1015.9 1014.5 0.0
15/06:00am 13.5 11.3 6.4 62 3.4 SSW 7 7 4 4 1015.7 1014.2 0.0
15/05:30am 13.2 11.6 6.3 63 3.3 SSW 4 7 2 4 1015.4 1013.9 0.0
15/05:00am 14.1 12.5 6.2 59 3.8 SSE 4 7 2 4 1014.8 1013.3 0.0
15/04:30am 14.9 12.3 6.2 56 4.2 SSE 9 13 5 7 1014.7 1013.2 0.0
15/04:00am 15.4 12.8 6.2 54 4.5 S 9 13 5 7 1014.6 1013.1 0.0
15/03:30am 15.9 12.5 6.1 52 4.8 S 13 17 7 9 1014.5 1013.0 0.0
15/03:00am 16.6 12.4 5.9 49 5.3 S 17 22 9 12 1014.5 1013.0 0.0
15/02:30am 16.9 13.0 5.5 47 5.6 S 15 19 8 10 1014.8 1013.3 0.0
15/02:00am 17.4 13.0 5.0 44 6.0 S 17 24 9 13 1015.0 1013.5 0.0
15/01:30am 17.7 13.2 4.3 41 6.4 SW 17 22 9 12 1015.2 1013.7 0.0
15/01:00am 17.5 13.3 3.8 40 6.5 SW 15 20 8 11 1015.2 1013.7 0.0
15/12:30am 17.3 13.6 4.3 42 6.2 WSW 13 15 7 8 1015.3 1013.8 0.0
15/12:00am 17.4 13.9 3.7 40 6.5 SW 11 13 6 7 1015.4 1013.9 0.0
 
Date/Time
EDT
Temp
°C
App
Temp
°C
Dew
Point
°C
Rel
Hum
%
Delta-T
°C
Wind Press
QNH
hPa
Press
MSL
hPa
Rain since
9am
mm
Dir  Spd
km/h
Gust
km/h
Spd
kts
Gust
kts
14/11:30pm 17.2 14.2 4.2 42 6.2 WSW 9 11 5 6 1015.5 1014.0 0.0
14/11:00pm 18.0 14.5 3.5 38 6.8 SW 11 15 6 8 1015.4 1013.9 0.0
14/10:30pm 18.6 15.4 3.3 36 7.2 SW 9 11 5 6 1015.2 1013.7 0.0
14/10:00pm 19.2 15.6 3.0 34 7.6 SSW 11 13 6 7 1015.0 1013.5 0.0
14/09:30pm 19.9 16.6 2.7 32 8.1 SSW 9 13 5 7 1014.8 1013.3 0.0
14/09:00pm 21.5 17.4 2.2 28 9.1 S 13 17 7 9 1014.6 1013.1 0.0
14/08:30pm 22.5 17.6 2.1 26 9.7 S 17 24 9 13 1014.3 1012.8 0.0
14/08:00pm 23.4 17.9 1.7 24 10.3 S 20 28 11 15 1014.1 1012.6 0.0
14/07:30pm 24.1 17.8 1.7 23 10.7 S 24 33 13 18 1013.8 1012.3 0.0
14/07:00pm 24.7 18.1 2.2 23 10.9 S 26 35 14 19 1013.3 1011.8 0.0
14/06:30pm 25.4 20.0 2.2 22 11.3 SSE 20 28 11 15 1012.6 1011.2 0.0
14/06:00pm 25.7 19.5 2.4 22 11.4 S 24 35 13 19 1012.7 1011.3 0.0
14/05:30pm 25.4 18.5 2.8 23 11.1 S 28 46 15 25 1013.1 1011.6 0.0
14/05:26pm 25.4 18.9 2.8 23 11.1 S 26 46 14 25 1013.0 1011.5 0.0
14/05:00pm 25.4 18.4 2.2 22 11.3 SSE 28 39 15 21 1013.0 1011.5 0.0
14/04:30pm 25.3 19.1 2.1 22 11.3 SSE 24 43 13 23 1013.0 1011.5 0.0
14/04:00pm 25.0 18.2 3.0 24 10.8 S 28 41 15 22 1013.2 1011.7 0.0
14/03:54pm 24.8 17.9 2.3 23 10.9 S 28 46 15 25 1013.4 1011.9 0.0
14/03:49pm 24.8 18.2 2.3 23 10.9 S 26 46 14 25 1013.4 1011.9 0.0
14/03:48pm 16.5 9.4 -4.7 23 8.3 S 24 46 13 25 1013.3 1011.8 0.0
14/03:30pm 24.5 18.1 3.2 25 10.5 S 26 41 14 22 1013.4 1011.9 0.0
14/03:00pm 23.9 17.5 3.2 26 10.2 S 26 39 14 21 1013.5 1012.0 0.0
14/02:30pm 23.7 16.6 3.6 27 9.9 S 30 48 16 26 1013.5 1012.0 0.0
14/02:00pm 24.1 17.4 3.4 26 10.2 S 28 41 15 22 1013.5 1012.0 0.0
14/01:30pm 23.4 17.3 2.8 26 10.0 SSW 24 39 13 21 1013.6 1012.1 0.0
14/01:00pm 22.1 15.2 2.8 28 9.3 SSW 28 39 15 21 1013.8 1012.3 0.0
14/12:30pm 21.5 15.2 3.7 31 8.7 S 26 43 14 23 1013.9 1012.4 0.0
14/12:00pm 20.7 13.3 3.9 33 8.2 S 32 48 17 26 1014.0 1012.5 0.0
14/11:56am 21.1 14.1 4.2 33 8.3 S 30 48 16 26 1013.9 1012.4 0.0
14/11:30am 19.7 13.1 4.2 36 7.5 S 28 43 15 23 1013.8 1012.3 0.0
14/11:00am 19.6 12.8 4.9 38 7.2 S 30 39 16 21 1013.7 1012.2 0.0
14/10:30am 18.7 12.7 5.2 41 6.6 S 26 41 14 22 1013.6 1012.1 0.0
14/10:00am 18.3 11.9 5.2 42 6.4 SSW 28 41 15 22 1013.5 1012.0 0.0
14/09:30am 16.7 11.3 6.5 51 5.1 S 24 35 13 19 1013.4 1011.9 0.0
14/09:00am 15.6 9.9 6.6 55 4.5 S 26 37 14 20 1013.5 1012.0 0.0
14/08:30am 15.3 10.8 8.5 64 3.5 SSW 22 30 12 16 1013.1 1011.6 0.0
14/08:00am 13.6 8.6 8.2 70 2.7 SSW 24 32 13 17 1012.5 1011.1 0.0
14/07:30am 12.5 7.5 8.2 75 2.2 SSW 24 35 13 19 1012.1 1010.6 0.0
14/07:00am 11.6 7.0 8.1 79 1.7 SSW 22 35 12 19 1011.6 1010.1 0.0
14/06:30am 11.3 6.6 7.8 79 1.7 SW 22 30 12 16 1011.0 1009.5 0.0
14/06:00am 11.5 6.4 7.6 77 1.9 SSW 24 33 13 18 1010.6 1009.1 0.0
14/05:30am 11.7 6.9 7.2 74 2.2 SW 22 30 12 16 1010.3 1008.8 0.0
14/05:00am 12.1 7.2 7.0 71 2.5 SW 22 37 12 20 1009.8 1008.3 0.0
14/04:30am 12.5 7.2 6.8 68 2.8 SW 24 35 13 19 1009.4 1007.9 0.0
14/04:00am 13.0 6.9 6.8 66 3.0 SW 28 35 15 19 1009.2 1007.7 0.0
14/03:30am 13.6 8.6 6.5 62 3.5 SW 22 32 12 17 1008.7 1007.2 0.0
14/03:00am 14.1 8.7 8.1 67 3.0 SW 26 33 14 18 1008.6 1007.1 0.0
14/02:30am 14.7 9.3 9.5 71 2.7 SW 28 41 15 22 1009.0 1007.5 0.0
14/02:00am 15.1 9.5 10.1 72 2.7 SW 30 44 16 24 1008.9 1007.3 0.0
14/01:32am 15.6 10.3 9.9 69 3.0 SSW 28 46 15 25 1008.7 1007.2 0.0
14/01:30am 15.6 10.8 10.2 70 2.9 SSW 26 35 14 19 1008.7 1007.2 0.0
14/01:00am 16.3 10.0 9.7 65 3.5 SSW 33 44 18 24 1008.5 1007.0 0.0
14/12:30am 16.9 10.8 9.8 63 3.8 SW 32 46 17 25 1008.4 1006.9 0.0
14/12:11am 17.3 11.6 11.3 68 3.3 SW 32 50 17 27 1008.2 1006.7 0.0
14/12:00am 17.6 12.6 12.1 70 3.1 SW 30 41 16 22 1008.0 1006.5 0.0
 
Date/Time
EDT
Temp
°C
App
Temp
°C
Dew
Point
°C
Rel
Hum
%
Delta-T
°C
Wind Press
QNH
hPa
Press
MSL
hPa
Rain since
9am
mm
Dir  Spd
km/h
Gust
km/h
Spd
kts
Gust
kts
13/11:30pm 18.5 11.6 11.6 64 3.8 SW 39 48 21 26 1007.8 1006.3 0.0
13/11:00pm 19.7 14.3 10.9 57 4.9 SW 30 46 16 25 1007.4 1005.9 0.0
13/10:45pm 20.0 14.0 10.7 55 5.1 SW 33 50 18 27 1007.5 1006.0 0.0
13/10:30pm 21.0 16.8 9.9 49 6.1 SW 22 32 12 17 1007.2 1005.7 0.0
13/10:00pm 21.6 16.4 8.8 44 6.9 WSW 26 39 14 21 1006.6 1005.1 0.0
13/09:48pm 21.5 15.5 8.7 44 6.8 W 30 48 16 26 1006.5 1005.0 0.0
13/09:43pm 21.7 17.3 8.9 44 6.9 W 22 46 12 25 1006.6 1005.1 0.0
13/09:30pm 22.7 18.5 7.3 37 8.1 W 19 26 10 14 1006.3 1004.8 0.0
13/09:00pm 22.8 19.3 7.0 36 8.3 W 15 22 8 12 1006.3 1004.8 0.0

Other Formats:

Comma delimited format used in spreadsheet applications
http://www.bom.gov.au/fwo/IDN60801/IDN60801.95709.axf

JavaScript Object Notation format (JSON) in row-major order
http://www.bom.gov.au/fwo/IDN60801/IDN60801.95709.json